Time;durP1;ratioP1;P1;durP2;ratioP2;P2;SDS_P1;SDS_P2;PMS_P1;PMS_P2;Temp;Humidity;BMP_temperature;BMP_pressure;BME280_temperature;BME280_humidity;BME280_pressure;Samples;Min_cycle;Max_cycle;Signal;HPM_P1;HPM_P2
2023/07/11 00:00:23;;;;;;;6.20;4.63;;;;;;;19.56;64.47;101294.19;7399159;19;20074;-69
2023/07/11 00:02:52;;;;;;;5.03;4.53;;;;;;;19.50;64.64;101298.03;7396780;19;20010;-68
2023/07/11 00:05:21;;;;;;;6.43;4.63;;;;;;;19.42;64.65;101291.38;7397351;19;20082;-68
2023/07/11 00:07:50;;;;;;;6.63;4.93;;;;;;;19.32;65.29;101289.19;7396909;19;20018;-68
2023/07/11 00:10:20;;;;;;;5.65;4.65;;;;;;;19.24;65.57;101286.03;7397985;19;20505;-69
2023/07/11 00:12:49;;;;;;;6.15;5.47;;;;;;;19.15;65.42;101295.31;7396541;19;20014;-68
2023/07/11 00:15:20;;;;;;;7.43;5.20;;;;;;;19.08;65.61;101280.59;7398154;19;20082;-69
2023/07/11 00:17:50;;;;;;;7.18;5.00;;;;;;;19.02;66.13;101289.75;7396392;19;20073;-67
2023/07/11 00:20:19;;;;;;;5.95;5.30;;;;;;;18.98;66.19;101287.31;7395475;19;20370;-69
2023/07/11 00:22:48;;;;;;;6.75;4.95;;;;;;;18.92;66.45;101288.47;7397661;19;20018;-68
2023/07/11 00:25:16;;;;;;;7.03;5.38;;;;;;;18.88;66.31;101290.38;7397841;19;20425;-68
2023/07/11 00:27:45;;;;;;;7.75;5.95;;;;;;;18.84;66.94;101286.16;7397370;19;20558;-68
2023/07/11 00:30:14;;;;;;;7.03;5.38;;;;;;;18.79;66.79;101287.31;7397742;19;20090;-69
2023/07/11 00:32:45;;;;;;;6.40;5.35;;;;;;;18.75;66.70;101283.06;7397009;19;20018;-69
2023/07/11 00:35:13;;;;;;;7.30;5.68;;;;;;;18.70;67.45;101283.28;7397206;19;20082;-69
2023/07/11 00:37:42;;;;;;;7.32;5.45;;;;;;;18.66;67.38;101281.72;7395757;19;20169;-68
2023/07/11 00:40:12;;;;;;;6.47;5.20;;;;;;;18.60;67.46;101282.84;7397402;19;20094;-68
2023/07/11 00:42:40;;;;;;;9.75;5.03;;;;;;;18.56;67.81;101286.59;7395409;19;20087;-69
2023/07/11 00:45:39;;;;;;;6.50;4.88;;;;;;;18.51;67.98;101284.16;7397170;19;20014;-68
2023/07/11 00:48:10;;;;;;;5.65;4.70;;;;;;;18.47;67.92;101281.72;7394928;19;20066;-68
2023/07/11 00:50:39;;;;;;;6.35;4.70;;;;;;;18.43;68.09;101293.41;7394938;19;20535;-68
2023/07/11 00:53:07;;;;;;;7.95;5.10;;;;;;;18.39;68.03;101296.19;7396388;19;20031;-68
2023/07/11 00:55:36;;;;;;;7.43;4.72;;;;;;;18.34;68.49;101286.72;7397390;19;20022;-68
2023/07/11 00:58:05;;;;;;;5.30;4.53;;;;;;;18.29;68.57;101294.91;7394930;19;20082;-68
2023/07/11 01:00:34;;;;;;;6.57;4.78;;;;;;;18.24;68.42;101284.47;7394646;19;20086;-65
2023/07/11 01:03:02;;;;;;;12.07;5.30;;;;;;;18.21;68.94;101287.28;7396113;19;20015;-67
2023/07/11 01:05:33;;;;;;;6.00;4.80;;;;;;;18.19;68.76;101289.13;7396178;19;20550;-65
2023/07/11 01:08:02;;;;;;;5.28;4.75;;;;;;;18.17;68.75;101284.81;7394512;19;20074;-65
2023/07/11 01:10:30;;;;;;;7.45;4.70;;;;;;;18.15;69.14;101281.41;7396337;19;20427;-65
2023/07/11 01:13:08;;;;;;;8.75;4.90;;;;;;;18.12;69.05;101278.88;7395919;19;20078;-65
2023/07/11 01:15:36;;;;;;;5.57;4.47;;;;;;;18.07;69.14;101274.63;7396787;19;20105;-65
2023/07/11 01:18:05;;;;;;;6.88;4.95;;;;;;;18.05;69.33;101280.94;7393442;19;20082;-65
2023/07/11 01:20:50;;;;;;;7.07;4.97;;;;;;;18.01;69.33;101274.06;7393918;19;20018;-65
2023/07/11 01:23:21;;;;;;;6.18;4.72;;;;;;;17.97;69.11;101272.44;7393888;19;20098;-65
2023/07/11 01:25:50;;;;;;;6.60;5.30;;;;;;;17.92;69.70;101276.13;7393970;19;20545;-65
2023/07/11 01:28:20;;;;;;;7.50;5.63;;;;;;;17.89;69.43;101270.97;7395861;19;20081;-65
2023/07/11 01:30:49;;;;;;;5.35;4.47;;;;;;;17.86;69.66;101280.88;7393797;19;20019;-65
2023/07/11 01:33:17;;;;;;;7.28;4.97;;;;;;;17.83;69.66;101283.63;7394980;19;20019;-65
2023/07/11 01:35:46;;;;;;;6.55;5.03;;;;;;;17.80;69.88;101279.31;7395602;19;20078;-65
2023/07/11 01:38:14;;;;;;;7.68;4.70;;;;;;;17.78;69.82;101280.31;7393786;19;20023;-63
2023/07/11 01:40:45;;;;;;;6.93;5.38;;;;;;;17.71;70.17;101277.94;7393396;19;20439;-65
2023/07/11 01:43:14;;;;;;;7.22;4.85;;;;;;;17.69;70.13;101279.81;7395260;19;20086;-65
2023/07/11 01:45:42;;;;;;;5.63;4.43;;;;;;;17.66;70.36;101279.91;7395375;19;20444;-65
2023/07/11 01:48:11;;;;;;;7.07;5.22;;;;;;;17.63;70.31;101282.72;7393185;19;20010;-64
2023/07/11 01:50:40;;;;;;;5.88;5.28;;;;;;;17.60;70.53;101269.56;7394937;19;20444;-65
2023/07/11 01:53:08;;;;;;;5.47;4.75;;;;;;;17.57;70.38;101269.72;7393004;19;20447;-65
2023/07/11 01:55:36;;;;;;;6.65;4.75;;;;;;;17.54;70.46;101277.78;7392956;19;20015;-65
2023/07/11 01:58:07;;;;;;;7.43;5.03;;;;;;;17.50;70.48;101277.09;7393464;19;20019;-65
2023/07/11 02:00:36;;;;;;;7.28;4.50;;;;;;;17.46;70.71;101272.81;7395381;19;20070;-65
2023/07/11 02:03:05;;;;;;;5.57;4.35;;;;;;;17.42;70.62;101276.53;7394763;19;20496;-67
2023/07/11 02:05:34;;;;;;;5.68;4.78;;;;;;;17.38;70.73;101275.78;7395726;19;20077;-65
2023/07/11 02:08:02;;;;;;;6.82;4.80;;;;;;;17.35;70.79;101275.03;7395538;19;20094;-65
2023/07/11 02:10:30;;;;;;;6.43;4.93;;;;;;;17.31;70.82;101270.81;7392474;19;20513;-65
2023/07/11 02:12:59;;;;;;;5.65;4.40;;;;;;;17.27;70.79;101272.72;7394214;19;20018;-65
2023/07/11 02:15:30;;;;;;;6.13;5.00;;;;;;;17.24;70.62;101275.50;7392608;19;20094;-65
2023/07/11 02:17:59;;;;;;;5.13;4.63;;;;;;;17.21;70.86;101268.56;7393108;19;20509;-65
2023/07/11 02:20:28;;;;;;;5.88;4.78;;;;;;;17.19;70.77;101270.38;7392917;19;20018;-66
2023/07/11 02:22:59;;;;;;;6.10;4.93;;;;;;;17.16;70.82;101270.53;7394136;19;20022;-65
2023/07/11 02:25:27;;;;;;;7.30;5.20;;;;;;;17.14;70.95;101266.22;7392104;19;20023;-65
2023/07/11 02:27:56;;;;;;;5.03;4.53;;;;;;;17.09;71.07;101266.41;7392335;19;20110;-65
2023/07/11 02:30:24;;;;;;;7.72;4.47;;;;;;;17.07;71.53;101269.13;7395872;19;20073;-66
2023/07/11 02:32:55;;;;;;;7.93;4.88;;;;;;;17.05;71.36;101270.94;7398678;19;20082;-65
2023/07/11 02:35:24;;;;;;;5.30;4.80;;;;;;;17.03;71.33;101270.13;7398849;19;20429;-66
2023/07/11 02:37:53;;;;;;;5.22;4.72;;;;;;;17.01;71.53;101266.72;7398421;19;20035;-65
2023/07/11 02:40:21;;;;;;;6.65;5.20;;;;;;;16.97;71.79;101262.44;7401103;19;20021;-66
2023/07/11 02:42:50;;;;;;;7.72;4.65;;;;;;;16.96;72.00;101262.50;7400433;19;20482;-65
2023/07/11 02:45:18;;;;;;;7.18;5.05;;;;;;;16.93;71.99;101263.50;7398597;19;20082;-64
2023/07/11 02:47:47;;;;;;;5.38;4.40;;;;;;;16.90;71.84;101261.78;7398364;19;20087;-65
2023/07/11 02:50:18;;;;;;;6.50;4.80;;;;;;;16.88;71.86;101266.31;7400709;19;20549;-67
2023/07/11 02:52:47;;;;;;;10.35;5.00;;;;;;;16.85;72.08;101268.22;7401040;19;20083;-67
2023/07/11 02:55:15;;;;;;;6.57;4.97;;;;;;;16.83;72.17;101256.81;7401268;19;20010;-67
2023/07/11 02:57:44;;;;;;;7.07;5.45;;;;;;;16.81;72.26;101263.94;7398599;19;20090;-67
2023/07/11 03:00:14;;;;;;;5.95;4.88;;;;;;;16.75;72.57;101263.25;7400689;19;20074;-67
2023/07/11 03:02:42;;;;;;;7.63;5.15;;;;;;;16.72;72.36;101271.34;7399646;19;20089;-67
2023/07/11 03:05:12;;;;;;;15.77;5.38;;;;;;;16.69;72.61;101267.94;7397954;19;20081;-67
2023/07/11 03:07:43;;;;;;;5.72;4.60;;;;;;;16.68;72.31;101263.56;7397723;19;20019;-67
2023/07/11 03:10:12;;;;;;;5.85;5.00;;;;;;;16.67;72.46;101272.44;7401066;19;20014;-67
2023/07/11 03:12:41;;;;;;;6.18;4.80;;;;;;;16.65;72.70;101271.66;7399693;19;20022;-68
2023/07/11 03:15:11;;;;;;;5.57;4.65;;;;;;;16.63;72.60;101274.38;7400128;19;20421;-67
2023/07/11 03:17:39;;;;;;;5.25;4.63;;;;;;;16.61;72.50;101274.41;7398349;19;20087;-67
2023/07/11 03:20:21;;;;;;;8.57;4.95;;;;;;;16.60;72.87;101274.47;7398516;19;20015;-67
2023/07/11 03:22:52;;;;;;;5.65;4.82;;;;;;;16.59;72.55;101275.38;7399306;19;20512;-66
2023/07/11 03:25:21;;;;;;;7.63;5.25;;;;;;;16.57;72.53;101271.94;7397059;19;20074;-66
2023/07/11 03:27:50;;;;;;;6.53;4.95;;;;;;;16.57;72.64;101279.91;7399513;19;20014;-67
2023/07/11 03:30:18;;;;;;;7.28;5.38;;;;;;;16.55;72.99;101273.78;7399460;19;20010;-66
2023/07/11 03:32:47;;;;;;;5.78;5.18;;;;;;;16.54;72.84;101280.00;7399148;19;20019;-66
2023/07/11 03:35:15;;;;;;;6.85;5.63;;;;;;;16.53;72.75;101278.25;7399266;19;20035;-67
2023/07/11 03:37:44;;;;;;;6.43;5.57;;;;;;;16.54;73.07;101277.34;7398409;19;20015;-67
2023/07/11 03:40:15;;;;;;;7.10;5.50;;;;;;;16.54;73.10;101280.00;7398866;19;20039;-66
2023/07/11 03:42:44;;;;;;;5.55;5.05;;;;;;;16.54;73.05;101278.22;7399234;19;20018;-66
2023/07/11 03:45:13;;;;;;;8.23;5.53;;;;;;;16.57;73.11;101277.25;7398174;19;20010;-64
2023/07/11 03:47:41;;;;;;;7.18;5.70;;;;;;;16.58;72.74;101285.13;7398337;19;20372;-68
2023/07/11 03:50:10;;;;;;;6.32;5.45;;;;;;;16.59;73.23;101280.69;7398364;19;20018;-67
2023/07/11 03:52:39;;;;;;;6.72;5.80;;;;;;;16.60;72.81;101285.06;7398730;19;20036;-67
2023/07/11 03:55:09;;;;;;;8.73;5.45;;;;;;;16.63;73.04;101290.25;7396124;19;20415;-67
2023/07/11 03:57:40;;;;;;;8.32;5.13;;;;;;;16.65;72.82;101290.19;7397455;19;20014;-67
2023/07/11 04:00:10;;;;;;;14.02;8.65;;;;;;;16.67;73.24;101283.91;7398176;19;20018;-67
2023/07/11 04:02:39;;;;;;;10.75;7.25;;;;;;;16.70;73.08;101282.94;7394875;19;20038;-67
2023/07/11 04:05:08;;;;;;;9.73;7.03;;;;;;;16.71;72.94;101290.81;7397866;19;20331;-69
2023/07/11 04:07:36;;;;;;;16.73;10.05;;;;;;;16.74;73.03;101285.41;7397728;19;20035;-68
2023/07/11 04:10:07;;;;;;;12.02;7.00;;;;;;;16.78;72.97;101288.78;7395994;19;20018;-68
2023/07/11 04:12:36;;;;;;;6.70;5.35;;;;;;;16.81;72.85;101296.63;7399305;19;20039;-68
2023/07/11 04:15:08;;;;;;;7.93;5.20;;;;;;;16.83;72.96;101296.56;7395361;19;20031;-68
2023/07/11 04:17:36;;;;;;;8.20;5.72;;;;;;;16.86;72.61;101294.66;7395762;19;20022;-68
2023/07/11 04:20:06;;;;;;;7.80;5.93;;;;;;;16.89;72.57;101288.38;7397779;19;20014;-67
2023/07/11 04:22:34;;;;;;;7.43;5.18;;;;;;;16.92;72.88;101288.25;7396426;19;20015;-68
2023/07/11 04:25:03;;;;;;;6.63;5.25;;;;;;;16.96;72.66;101289.88;7397541;19;20040;-68
2023/07/11 04:27:31;;;;;;;6.63;5.82;;;;;;;17.00;72.54;101285.34;7397380;19;20026;-68
2023/07/11 04:30:00;;;;;;;9.18;6.45;;;;;;;17.04;72.58;101284.28;7396922;19;20432;-68
2023/07/11 04:32:31;;;;;;;6.57;5.90;;;;;;;17.07;72.24;101276.19;7397053;19;20018;-69
2023/07/11 04:34:59;;;;;;;6.70;5.88;;;;;;;17.09;72.06;101285.81;7394798;19;20478;-69
2023/07/11 04:37:28;;;;;;;7.40;6.07;;;;;;;17.13;72.08;101280.41;7395035;19;20035;-69
2023/07/11 04:39:56;;;;;;;8.30;5.60;;;;;;;17.17;72.07;101279.34;7394109;19;20035;-68
2023/07/11 04:42:25;;;;;;;6.63;5.90;;;;;;;17.20;71.88;101292.44;7396197;19;20510;-68
2023/07/11 04:44:53;;;;;;;7.53;6.18;;;;;;;17.24;71.89;101283.47;7394725;19;20022;-68
2023/07/11 04:47:22;;;;;;;7.70;5.95;;;;;;;17.28;71.98;101278.91;7394400;19;20458;-68
2023/07/11 04:49:53;;;;;;;8.45;5.70;;;;;;;17.32;71.40;101277.84;7394588;19;20019;-69
2023/07/11 04:52:22;;;;;;;7.43;6.47;;;;;;;17.36;71.69;101272.34;7393115;19;20015;-68
2023/07/11 04:54:50;;;;;;;8.15;5.78;;;;;;;17.40;71.69;101268.63;7394737;19;20026;-68
2023/07/11 04:57:19;;;;;;;6.95;6.22;;;;;;;17.46;71.68;101266.66;7395590;19;20018;-68
2023/07/11 04:59:47;;;;;;;10.07;5.55;;;;;;;17.52;71.39;101269.91;7395689;19;20013;-68
2023/07/11 05:02:16;;;;;;;7.93;5.75;;;;;;;17.57;70.98;101269.72;7395544;19;20031;-68
2023/07/11 05:04:44;;;;;;;9.05;5.47;;;;;;;17.64;71.13;101270.31;7394101;19;20364;-68
2023/07/11 05:07:16;;;;;;;8.52;5.50;;;;;;;17.70;70.84;101270.03;7395471;19;20010;-70
2023/07/11 05:09:45;;;;;;;9.35;5.45;;;;;;;17.78;70.92;101270.59;7393715;19;20474;-69
2023/07/11 05:12:14;;;;;;;7.50;5.57;;;;;;;17.85;71.07;101271.16;7395413;19;20014;-69
2023/07/11 05:14:42;;;;;;;8.40;5.97;;;;;;;17.93;70.94;101266.38;7393862;19;20010;-70
2023/07/11 05:17:11;;;;;;;6.75;6.05;;;;;;;17.99;70.95;101266.13;7395261;19;20482;-70
2023/07/11 05:19:39;;;;;;;8.20;5.63;;;;;;;18.07;70.73;101268.44;7394939;19;20031;-67
2023/07/11 05:22:08;;;;;;;8.90;5.85;;;;;;;18.15;70.65;101268.13;7397626;19;20030;-68
2023/07/11 05:24:39;;;;;;;7.45;6.18;;;;;;;18.23;70.58;101265.97;7393492;19;20427;-67
2023/07/11 05:27:07;;;;;;;8.60;6.32;;;;;;;18.30;70.50;101264.75;7395528;19;20014;-68
2023/07/11 05:29:38;;;;;;;7.95;6.30;;;;;;;18.37;70.06;101267.97;7394892;19;20010;-68
2023/07/11 05:32:07;;;;;;;7.22;6.15;;;;;;;18.43;70.16;101258.88;7395996;19;20014;-68
2023/07/11 05:34:35;;;;;;;6.88;5.65;;;;;;;18.52;69.82;101259.28;7393850;19;20015;-67
2023/07/11 05:37:04;;;;;;;7.72;5.68;;;;;;;18.59;69.76;101256.34;7392816;19;20014;-67
2023/07/11 05:39:32;;;;;;;8.38;5.80;;;;;;;18.66;69.93;101255.13;7392980;19;20022;-67
2023/07/11 05:42:03;;;;;;;7.70;6.35;;;;;;;18.72;69.66;101246.88;7394756;19;20022;-67
2023/07/11 05:44:32;;;;;;;8.45;5.28;;;;;;;18.80;69.81;101247.34;7393061;19;20019;-67
2023/07/11 05:47:01;;;;;;;6.22;5.63;;;;;;;18.86;69.99;101241.72;7394163;19;20014;-67
2023/07/11 05:49:29;;;;;;;7.53;5.88;;;;;;;18.91;69.91;101233.56;7393126;19;20039;-66
2023/07/11 05:51:58;;;;;;;8.63;5.47;;;;;;;19.01;69.91;101237.50;7394978;19;20082;-67
2023/07/11 05:54:26;;;;;;;7.15;5.43;;;;;;;19.09;70.09;101236.28;7392754;19;20480;-68
2023/07/11 05:56:55;;;;;;;6.15;5.63;;;;;;;19.16;69.93;101240.34;7392237;19;20018;-68
2023/07/11 05:59:26;;;;;;;8.52;6.10;;;;;;;19.24;70.04;101238.16;7392730;19;20105;-68
2023/07/11 06:01:54;;;;;;;6.40;5.70;;;;;;;19.30;69.95;101235.19;7393016;19;20099;-68
2023/07/11 06:04:23;;;;;;;6.68;5.97;;;;;;;19.39;69.96;101241.00;7393027;19;20026;-67
2023/07/11 06:06:51;;;;;;;6.50;5.60;;;;;;;19.46;70.06;101229.94;7398838;19;20018;-66
2023/07/11 06:09:22;;;;;;;10.25;6.90;;;;;;;19.53;70.31;101235.81;7401720;19;20014;-66
2023/07/11 06:11:52;;;;;;;7.07;5.93;;;;;;;19.60;70.32;101223.03;7399017;19;20395;-66
2023/07/11 06:14:22;;;;;;;6.47;5.50;;;;;;;19.67;70.41;101225.28;7399505;19;20379;-67
2023/07/11 06:16:54;;;;;;;7.28;5.55;;;;;;;19.76;70.16;101223.09;7401864;19;20090;-67
2023/07/11 06:19:22;;;;;;;20.58;7.22;;;;;;;19.83;69.81;101227.19;7399823;19;20047;-67
2023/07/11 06:21:51;;;;;;;9.00;6.40;;;;;;;19.91;69.78;101227.63;7398097;19;20014;-67
2023/07/11 06:24:19;;;;;;;8.10;6.63;;;;;;;19.99;70.03;101225.44;7398386;19;20022;-68
2023/07/11 06:26:48;;;;;;;6.30;5.70;;;;;;;20.08;70.36;101233.84;7399065;19;20018;-67
2023/07/11 06:29:16;;;;;;;8.52;6.05;;;;;;;20.15;69.89;101225.44;7400676;19;20506;-67
2023/07/11 06:31:47;;;;;;;7.13;6.07;;;;;;;20.25;70.24;101225.81;7397691;19;20018;-67
2023/07/11 06:34:18;;;;;;;8.20;5.53;;;;;;;20.33;70.01;101226.25;7399037;19;20019;-68
2023/07/11 06:36:47;;;;;;;6.05;5.35;;;;;;;20.43;69.84;101220.41;7398530;19;20070;-67
2023/07/11 06:39:15;;;;;;;6.25;4.82;;;;;;;20.50;69.61;101222.66;7397672;19;20015;-67
2023/07/11 06:41:44;;;;;;;5.65;4.43;;;;;;;20.59;68.87;101223.09;7400089;19;20383;-67
2023/07/11 06:44:12;;;;;;;19.02;12.73;;;;;;;20.66;68.70;101214.66;7398015;19;20015;-67
2023/07/11 06:46:41;;;;;;;14.38;7.05;;;;;;;20.72;68.56;101210.78;7398005;19;20011;-67
2023/07/11 06:49:09;;;;;;;7.68;5.45;;;;;;;20.82;68.45;101216.47;7400678;19;20075;-67
2023/07/11 06:51:40;;;;;;;7.80;4.80;;;;;;;20.89;67.92;101212.50;7400308;19;20082;-67
2023/07/11 06:54:09;;;;;;;11.02;4.90;;;;;;;20.97;67.75;101214.72;7398125;19;20510;-66
2023/07/11 06:56:37;;;;;;;4.72;4.25;;;;;;;21.05;66.87;101215.13;7400514;19;20039;-67
2023/07/11 06:59:06;;;;;;;10.93;7.57;;;;;;;21.12;66.83;101213.81;7398623;19;20018;-67
2023/07/11 07:01:34;;;;;;;6.25;5.07;;;;;;;21.20;66.36;101207.19;7397436;19;20424;-68
2023/07/11 07:04:03;;;;;;;6.35;4.30;;;;;;;21.29;66.07;101206.63;7399705;19;20010;-67
2023/07/11 07:06:31;;;;;;;6.03;3.97;;;;;;;21.37;65.88;101209.72;7398975;19;20014;-67
2023/07/11 07:09:03;;;;;;;5.32;3.45;;;;;;;21.46;65.64;101208.28;7399761;19;20023;-69
2023/07/11 07:11:31;;;;;;;5.53;4.47;;;;;;;21.54;65.09;101207.84;7400147;19;20023;-68
2023/07/11 07:14:00;;;;;;;7.50;4.63;;;;;;;21.62;65.08;101200.22;7397133;19;20023;-67
2023/07/11 07:16:28;;;;;;;4.85;3.30;;;;;;;21.73;63.71;101202.25;7398895;19;20027;-67
2023/07/11 07:18:57;;;;;;;5.13;3.22;;;;;;;21.82;63.20;101204.34;7397965;19;20366;-68
2023/07/11 07:21:26;;;;;;;3.90;3.33;;;;;;;21.91;62.81;101195.78;7397870;19;20032;-67
2023/07/11 07:23:55;;;;;;;4.78;4.30;;;;;;;22.00;62.76;101194.31;7396267;19;20487;-68
2023/07/11 07:26:27;;;;;;;8.55;4.22;;;;;;;22.11;61.97;101196.31;7396258;19;20374;-67
2023/07/11 07:28:55;;;;;;;5.15;3.78;;;;;;;22.19;61.04;101196.72;7397741;19;20023;-68
2023/07/11 07:31:25;;;;;;;7.22;3.80;;;;;;;22.26;60.53;101192.66;7397458;19;20388;-67
2023/07/11 07:33:54;;;;;;;4.57;3.42;;;;;;;22.33;60.32;101189.59;7398412;19;20019;-67
2023/07/11 07:36:23;;;;;;;4.68;3.40;;;;;;;22.39;59.70;101187.44;7398985;19;20018;-67
2023/07/11 07:38:51;;;;;;;9.57;3.70;;;;;;;22.47;58.87;101181.59;7397972;19;20023;-67
2023/07/11 07:41:19;;;;;;;4.78;3.67;;;;;;;22.54;58.80;101176.69;7398589;19;20510;-67
2023/07/11 07:43:50;;;;;;;6.75;3.30;;;;;;;22.63;58.35;101180.59;7397768;19;20022;-68
2023/07/11 07:46:20;;;;;;;6.22;3.63;;;;;;;22.70;58.24;101173.88;7398566;19;20026;-68
2023/07/11 07:48:49;;;;;;;5.90;3.28;;;;;;;22.81;57.35;101174.03;7398875;19;20251;-67
2023/07/11 07:51:19;;;;;;;5.72;2.70;;;;;;;22.90;57.01;101168.03;7398980;19;20019;-67
2023/07/11 07:53:48;;;;;;;4.40;2.60;;;;;;;23.00;55.78;101168.28;7396796;19;20022;-67
2023/07/11 07:56:19;;;;;;;6.88;2.60;;;;;;;23.09;55.27;101174.84;7398578;19;20027;-67
2023/07/11 07:58:48;;;;;;;4.97;2.47;;;;;;;23.16;54.49;101162.75;7397837;19;20130;-68
2023/07/11 08:01:21;;;;;;;8.02;2.90;;;;;;;23.23;54.06;101173.94;7396254;19;20010;-68
2023/07/11 08:03:50;;;;;;;3.90;2.35;;;;;;;23.31;53.79;101162.69;7396712;19;20023;-69
2023/07/11 08:06:19;;;;;;;9.77;6.07;;;;;;;23.36;53.75;101153.38;7398641;19;20018;-67
2023/07/11 08:08:48;;;;;;;7.35;3.30;;;;;;;23.40;53.06;101160.25;7397397;19;20467;-66
2023/07/11 08:11:20;;;;;;;6.90;4.03;;;;;;;23.45;53.19;101156.38;7395804;19;20026;-67
2023/07/11 08:13:49;;;;;;;3.28;2.35;;;;;;;23.52;52.87;101153.16;7396629;19;20021;-67
2023/07/11 08:16:21;;;;;;;6.75;2.80;;;;;;;23.57;52.10;101155.53;7397799;19;20022;-67
2023/07/11 08:18:49;;;;;;;3.15;2.05;;;;;;;23.65;52.00;101154.97;7397504;19;20018;-68
2023/07/11 08:21:18;;;;;;;3.25;2.25;;;;;;;23.69;51.48;101154.63;7397386;19;20032;-68
2023/07/11 08:23:46;;;;;;;3.80;2.70;;;;;;;23.77;51.06;101155.91;7396494;19;20496;-68
2023/07/11 08:26:15;;;;;;;3.90;2.30;;;;;;;23.82;50.50;101143.06;7397382;19;20039;-68
2023/07/11 08:28:44;;;;;;;7.45;3.67;;;;;;;23.88;50.35;101145.28;7395491;19;20074;-68
2023/07/11 08:31:12;;;;;;;3.50;2.28;;;;;;;23.94;49.96;101136.84;7395571;19;20014;-68
2023/07/11 08:33:43;;;;;;;4.00;2.00;;;;;;;24.00;49.69;101140.91;7394928;19;20019;-68
2023/07/11 08:36:12;;;;;;;3.70;2.58;;;;;;;24.06;49.12;101141.31;7395113;19;20066;-68
2023/07/11 08:38:41;;;;;;;3.65;2.22;;;;;;;24.14;49.20;101137.22;7396237;19;20019;-69
2023/07/11 08:41:18;;;;;;;4.32;2.08;;;;;;;24.18;48.27;101131.53;7397099;19;20014;-68
2023/07/11 08:43:47;;;;;;;3.47;2.47;;;;;;;24.23;48.51;101129.34;7396213;19;20018;-68
2023/07/11 08:46:17;;;;;;;4.32;2.40;;;;;;;24.31;47.81;101125.25;7394477;19;20022;-68
2023/07/11 08:48:52;;;;;;;5.30;2.15;;;;;;;24.42;48.17;101130.69;7396277;19;20018;-67
2023/07/11 08:51:26;;;;;;;6.95;2.53;;;;;;;24.54;47.67;101129.78;7395027;19;20022;-68
2023/07/11 08:54:02;;;;;;;3.92;2.20;;;;;;;24.65;47.23;101125.47;7394776;19;20022;-68
2023/07/11 08:56:36;;;;;;;7.13;2.70;;;;;;;24.77;47.12;101129.03;7395971;19;20489;-68
2023/07/11 08:59:08;;;;;;;5.97;2.65;;;;;;;24.85;46.79;101122.09;7397134;19;20018;-67
2023/07/11 09:01:52;;;;;;;5.82;2.70;;;;;;;24.93;46.52;101118.00;7394602;19;20019;-68
2023/07/11 09:04:26;;;;;;;5.43;2.20;;;;;;;24.96;46.19;101115.94;7395299;19;20200;-68
2023/07/11 09:06:58;;;;;;;4.05;2.38;;;;;;;24.99;45.72;101107.63;7394752;19;20018;-68
2023/07/11 09:09:27;;;;;;;5.30;2.30;;;;;;;25.02;45.60;101111.91;7394339;19;20035;-68
2023/07/11 09:12:07;;;;;;;5.10;2.65;;;;;;;25.05;45.41;101109.84;7395388;19;20022;-68
2023/07/11 09:14:51;;;;;;;4.93;2.05;;;;;;;25.11;44.88;101103.16;7394141;19;20026;-72
2023/07/11 09:17:35;;;;;;;4.72;2.58;;;;;;;25.15;44.95;101107.31;7394215;19;20022;-71
2023/07/11 09:20:31;;;;;;;4.15;2.58;;;;;;;25.20;44.43;101102.44;7394820;19;20070;-72
2023/07/11 09:23:15;;;;;;;3.47;2.10;;;;;;;25.26;44.66;101092.19;7393423;19;20526;-68
2023/07/11 09:25:46;;;;;;;3.85;1.90;;;;;;;25.33;43.93;101096.94;7395980;19;20014;-68
2023/07/11 09:28:20;;;;;;;3.83;2.17;;;;;;;25.42;43.29;101098.09;7393498;19;20498;-68
2023/07/11 09:30:53;;;;;;;3.17;1.83;;;;;;;25.50;42.99;101084.91;7395243;19;20489;-68
2023/07/11 09:33:24;;;;;;;3.58;2.17;;;;;;;25.60;42.55;101081.47;7394032;19;20018;-67
2023/07/11 09:35:56;;;;;;;3.60;2.13;;;;;;;25.67;42.33;101085.38;7394125;19;20025;-68
2023/07/11 09:38:30;;;;;;;3.92;2.33;;;;;;;25.74;42.60;101081.19;7392463;19;20517;-67
2023/07/11 09:41:03;;;;;;;3.33;2.00;;;;;;;25.77;42.08;101075.59;7394307;19;20422;-66
2023/07/11 09:43:32;;;;;;;3.63;2.20;;;;;;;25.78;42.17;101073.75;7394350;19;20014;-68
2023/07/11 09:46:00;;;;;;;4.10;2.13;;;;;;;25.81;41.88;101062.78;7394001;19;20075;-68
2023/07/11 09:48:34;;;;;;;6.18;3.60;;;;;;;25.86;41.14;101061.41;7394380;19;20018;-68
2023/07/11 09:51:24;;;;;;;4.75;2.63;;;;;;;25.90;40.72;101053.09;7395091;19;20014;-68
2023/07/11 09:53:55;;;;;;;5.80;2.53;;;;;;;25.92;40.67;101053.81;7392186;19;20022;-67
2023/07/11 09:56:26;;;;;;;4.68;2.38;;;;;;;25.98;40.09;101050.63;7392687;19;20489;-68
2023/07/11 09:58:57;;;;;;;3.75;2.58;;;;;;;26.02;39.72;101052.06;7394857;19;20039;-68
2023/07/11 10:01:28;;;;;;;4.07;1.95;;;;;;;26.04;39.50;101047.44;7394565;19;20010;-68
2023/07/11 10:03:58;;;;;;;4.70;2.83;;;;;;;26.09;39.49;101047.09;7393485;19;20150;-67
2023/07/11 10:06:33;;;;;;;4.68;1.88;;;;;;;26.09;39.46;101042.56;7394242;19;20019;-68
2023/07/11 10:09:08;;;;;;;7.43;2.60;;;;;;;26.12;39.19;101034.25;7393354;19;20493;-68
2023/07/11 10:11:37;;;;;;;6.13;2.80;;;;;;;26.13;39.22;101025.19;7394108;19;20011;-68
2023/07/11 10:14:05;;;;;;;3.47;2.00;;;;;;;26.17;39.50;101028.47;7392768;19;20019;-67
2023/07/11 10:16:35;;;;;;;3.47;1.83;;;;;;;26.22;39.53;101020.88;7392073;19;20022;-69
2023/07/11 10:19:04;;;;;;;5.40;2.00;;;;;;;26.31;39.43;101019.25;7393493;19;20476;-70
2023/07/11 10:21:36;;;;;;;3.85;2.33;;;;;;;26.34;38.79;101009.09;7392105;19;20015;-68
2023/07/11 10:24:04;;;;;;;4.60;2.13;;;;;;;26.42;38.83;101013.81;7393226;19;20023;-70
2023/07/11 10:26:40;;;;;;;3.22;1.73;;;;;;;26.45;38.80;101012.69;7393581;19;20014;-68
2023/07/11 10:29:22;;;;;;;3.10;1.88;;;;;;;26.49;38.71;101006.94;7390772;19;20028;-68
2023/07/11 10:31:55;;;;;;;5.50;1.83;;;;;;;26.53;38.40;101001.28;7393347;19;20379;-68
2023/07/11 10:34:30;;;;;;;2.95;1.75;;;;;;;26.56;38.19;100992.97;7391178;19;20014;-68
2023/07/11 10:37:07;;;;;;;1.83;1.45;;;;;;;26.60;37.75;100991.69;7391419;19;20019;-69
2023/07/11 10:39:44;;;;;;;2.17;1.80;;;;;;;26.62;37.24;100993.28;7392854;19;20019;-67
2023/07/11 10:42:26;;;;;;;6.55;4.10;;;;;;;26.68;36.73;100989.22;7393591;19;20019;-67
2023/07/11 10:45:02;;;;;;;4.28;1.90;;;;;;;26.73;37.28;100988.78;7391578;19;20035;-68
2023/07/11 10:47:35;;;;;;;2.70;1.90;;;;;;;26.79;36.83;100977.53;7393483;19;20030;-68
2023/07/11 10:50:07;;;;;;;3.40;2.40;;;;;;;26.88;36.79;100978.56;7393981;19;20019;-68
2023/07/11 10:52:40;;;;;;;4.25;1.80;;;;;;;26.98;36.56;100968.69;7401512;19;20029;-68
2023/07/11 10:55:16;;;;;;;4.82;2.15;;;;;;;27.09;36.72;100979.38;7400921;19;20056;-68
2023/07/11 10:57:50;;;;;;;3.90;2.00;;;;;;;27.18;36.61;100968.78;7397346;19;20018;-68
2023/07/11 11:00:20;;;;;;;4.50;2.40;;;;;;;27.24;36.56;100968.25;7398365;19;20469;-68
2023/07/11 11:03:02;;;;;;;4.20;2.00;;;;;;;27.30;36.47;100960.47;7399353;19;20011;-68
2023/07/11 11:05:40;;;;;;;4.10;2.30;;;;;;;27.39;36.36;100961.50;7397207;19;20098;-68
2023/07/11 11:08:15;;;;;;;5.93;2.10;;;;;;;27.49;35.90;100956.16;7399147;19;20078;-67
2023/07/11 11:10:50;;;;;;;4.25;2.03;;;;;;;27.58;36.34;100949.06;7399373;19;20027;-69
2023/07/11 11:13:29;;;;;;;4.55;2.45;;;;;;;27.68;36.19;100949.94;7398563;19;20019;-65
2023/07/11 11:16:02;;;;;;;3.78;2.40;;;;;;;27.78;35.63;100948.09;7399707;19;20020;-65
2023/07/11 11:18:41;;;;;;;7.90;4.05;;;;;;;27.88;35.21;100947.22;7398971;19;20031;-67
2023/07/11 11:21:19;;;;;;;6.15;2.08;;;;;;;27.98;35.15;100940.03;7395409;19;20486;-68
2023/07/11 11:24:04;;;;;;;2.92;2.25;;;;;;;28.11;34.99;100937.06;7396525;19;20022;-68
2023/07/11 11:26:38;;;;;;;3.40;2.20;;;;;;;28.22;34.33;100936.91;7396893;19;20046;-68
2023/07/11 11:29:14;;;;;;;2.70;1.90;;;;;;;28.34;34.35;100939.44;7396820;19;20022;-67
2023/07/11 11:31:59;;;;;;;2.80;2.17;;;;;;;28.45;34.12;100931.19;7397738;19;20138;-67
2023/07/11 11:34:42;;;;;;;3.47;2.13;;;;;;;28.60;33.72;100936.97;7396576;19;20015;-68
2023/07/11 11:37:14;;;;;;;;;;;;;;;28.73;34.01;100924.00;7397635;19;20022;-68
2023/07/11 11:39:52;;;;;;;6.70;2.50;;;;;;;28.87;32.30;100921.84;7398303;19;19931;-68